createdAt,value
2019-02-14T00:00:37.373Z,-2.00
2019-02-14T00:03:25.003Z,-2.00
2019-02-14T00:06:13.378Z,-2.00
2019-02-14T00:09:01.282Z,-2.00
2019-02-14T00:11:49.176Z,-2.10
2019-02-14T00:14:38.144Z,-2.20
2019-02-14T00:17:26.685Z,-2.20
2019-02-14T00:20:14.774Z,-2.20
2019-02-14T00:23:02.714Z,-2.20
2019-02-14T00:25:51.036Z,-2.30
2019-02-14T00:28:39.024Z,-2.30
2019-02-14T00:31:27.225Z,-2.30
2019-02-14T00:34:15.620Z,-2.30
2019-02-14T00:37:03.566Z,-2.30
2019-02-14T00:39:51.524Z,-2.30
2019-02-14T00:42:39.719Z,-2.40
2019-02-14T00:45:27.605Z,-2.40
2019-02-14T00:48:15.246Z,-2.40
2019-02-14T00:51:02.975Z,-2.40
2019-02-14T00:53:50.578Z,-2.40
2019-02-14T00:56:38.577Z,-2.40
2019-02-14T00:59:26.391Z,-2.50
2019-02-14T01:02:14.396Z,-2.50
2019-02-14T01:05:02.273Z,-2.50
2019-02-14T01:07:50.179Z,-2.60
2019-02-14T01:10:38.266Z,-2.50
2019-02-14T01:13:26.044Z,-2.60
2019-02-14T01:16:13.860Z,-2.60
2019-02-14T01:19:01.355Z,-2.60
2019-02-14T01:21:49.900Z,-2.70
2019-02-14T01:24:37.436Z,-2.70
2019-02-14T01:27:25.267Z,-2.70
2019-02-14T01:30:13.157Z,-2.70
2019-02-14T01:33:01.467Z,-2.70
2019-02-14T01:35:49.438Z,-2.70
2019-02-14T01:38:37.291Z,-2.70
2019-02-14T01:41:25.235Z,-2.70
2019-02-14T01:44:13.303Z,-2.70
2019-02-14T01:47:00.840Z,-2.70
2019-02-14T01:49:48.485Z,-2.80
2019-02-14T01:52:36.485Z,-2.80
2019-02-14T01:55:24.904Z,-2.80
2019-02-14T01:58:13.154Z,-2.90
2019-02-14T02:01:00.633Z,-2.90
2019-02-14T02:03:48.723Z,-2.90
2019-02-14T02:06:36.707Z,-2.90
2019-02-14T02:09:25.092Z,-2.90
2019-02-14T02:12:13.307Z,-2.90
2019-02-14T02:15:01.202Z,-2.90
2019-02-14T02:17:49.460Z,-3.00
2019-02-14T02:20:37.275Z,-3.00
2019-02-14T02:23:25.474Z,-3.00
2019-02-14T02:26:13.450Z,-3.10
2019-02-14T02:29:01.895Z,-3.10
2019-02-14T02:31:50.379Z,-3.10
2019-02-14T02:34:38.291Z,-3.00
2019-02-14T02:37:26.408Z,-3.00
2019-02-14T02:40:14.914Z,-3.10
2019-02-14T02:43:03.210Z,-3.10
2019-02-14T02:45:51.534Z,-3.10
2019-02-14T02:48:39.872Z,-3.10
2019-02-14T02:51:27.582Z,-3.10
2019-02-14T02:54:16.089Z,-3.20
2019-02-14T02:57:03.956Z,-3.30
2019-02-14T02:59:52.542Z,-3.40
2019-02-14T03:02:40.692Z,-3.40
2019-02-14T03:05:29.129Z,-3.40
2019-02-14T03:08:17.052Z,-3.50
2019-02-14T03:11:05.316Z,-3.60
2019-02-14T03:13:53.664Z,-3.60
2019-02-14T03:16:41.836Z,-3.50
2019-02-14T03:19:29.653Z,-3.50
2019-02-14T03:22:17.806Z,-3.50
2019-02-14T03:25:07.711Z,-3.50
2019-02-14T03:27:56.020Z,-3.50
2019-02-14T03:30:44.423Z,-3.50
2019-02-14T03:33:32.239Z,-3.50
2019-02-14T03:36:20.645Z,-3.50
2019-02-14T03:39:08.905Z,-3.40
2019-02-14T03:41:57.077Z,-3.40
2019-02-14T03:44:45.142Z,-3.30
2019-02-14T03:47:32.730Z,-3.30
2019-02-14T03:50:20.482Z,-3.30
2019-02-14T03:53:09.011Z,-3.30
2019-02-14T03:55:56.726Z,-3.30
2019-02-14T03:58:44.902Z,-3.30
2019-02-14T04:01:33.043Z,-3.30
2019-02-14T04:04:21.010Z,-3.30
2019-02-14T04:07:08.929Z,-3.30
2019-02-14T04:09:57.384Z,-3.20
2019-02-14T04:12:45.546Z,-3.20
2019-02-14T04:15:33.609Z,-3.10
2019-02-14T04:18:21.243Z,-3.10
2019-02-14T04:21:09.327Z,-3.10
2019-02-14T04:23:59.038Z,-3.10
2019-02-14T04:26:46.801Z,-3.10
2019-02-14T04:29:35.317Z,-3.20
2019-02-14T04:32:23.394Z,-3.10
2019-02-14T04:35:11.847Z,-3.20
2019-02-14T04:37:59.590Z,-3.20
2019-02-14T04:40:47.683Z,-3.30
2019-02-14T04:43:35.512Z,-3.30
2019-02-14T04:46:23.434Z,-3.40
2019-02-14T04:49:11.413Z,-3.50
2019-02-14T04:51:59.066Z,-3.50
2019-02-14T04:54:47.227Z,-3.50
2019-02-14T04:57:35.183Z,-3.50
2019-02-14T05:00:22.860Z,-3.40
2019-02-14T05:03:10.636Z,-3.40
2019-02-14T05:05:58.799Z,-3.40
2019-02-14T05:08:49.920Z,-3.40
2019-02-14T05:11:38.103Z,-3.40
2019-02-14T05:14:26.463Z,-3.40
2019-02-14T05:17:14.683Z,-3.40
2019-02-14T05:20:02.600Z,-3.40
2019-02-14T05:22:50.807Z,-3.40
2019-02-14T05:25:39.192Z,-3.50
2019-02-14T05:28:27.607Z,-3.60
2019-02-14T05:31:15.664Z,-3.60
2019-02-14T05:34:03.844Z,-3.60
2019-02-14T05:36:54.698Z,-3.60
2019-02-14T05:39:41.719Z,-3.60
2019-02-14T05:42:29.934Z,-3.60
2019-02-14T05:45:17.826Z,-3.60
2019-02-14T05:48:06.020Z,-3.70
2019-02-14T05:50:54.563Z,-3.70
2019-02-14T05:53:42.638Z,-3.80
2019-02-14T05:56:30.312Z,-3.90
2019-02-14T05:59:18.433Z,-4.00
2019-02-14T06:02:05.927Z,-4.00
2019-02-14T06:04:54.287Z,-4.00
2019-02-14T06:07:42.744Z,-3.90
2019-02-14T06:10:30.746Z,-3.80
2019-02-14T06:13:18.753Z,-3.80
2019-02-14T06:16:06.815Z,-3.70
2019-02-14T06:18:54.840Z,-3.70
2019-02-14T06:21:42.981Z,-3.60
2019-02-14T06:24:30.792Z,-3.60
2019-02-14T06:27:19.514Z,-3.50
2019-02-14T06:30:09.985Z,-3.40
2019-02-14T06:32:58.110Z,-3.40
2019-02-14T06:35:46.038Z,-3.30
2019-02-14T06:38:33.759Z,-3.30
2019-02-14T06:41:21.478Z,-3.20
2019-02-14T06:44:09.613Z,-3.10
2019-02-14T06:46:57.498Z,-3.10
2019-02-14T06:49:45.737Z,-3.00
2019-02-14T06:52:34.250Z,-3.00
2019-02-14T06:55:22.358Z,-2.90
2019-02-14T06:58:10.220Z,-2.80
2019-02-14T07:00:58.516Z,-2.70
2019-02-14T07:03:46.669Z,-2.60
2019-02-14T07:06:34.226Z,-2.70
2019-02-14T07:09:22.005Z,-2.80
2019-02-14T07:12:12.536Z,-2.80
2019-02-14T07:15:00.345Z,-2.90
2019-02-14T07:17:48.220Z,-3.00
2019-02-14T07:20:36.142Z,-3.10
2019-02-14T07:23:24.122Z,-3.10
2019-02-14T07:26:12.170Z,-3.10
2019-02-14T07:29:00.202Z,-3.00
2019-02-14T07:31:47.973Z,-2.90
2019-02-14T07:34:35.846Z,-2.80
2019-02-14T07:37:26.804Z,-2.70
2019-02-14T07:40:13.916Z,-2.60
2019-02-14T07:43:02.309Z,-2.40
2019-02-14T07:45:50.703Z,-2.20
2019-02-14T07:48:39.096Z,-2.10
2019-02-14T07:51:27.420Z,-2.10
2019-02-14T07:54:15.777Z,-2.10
2019-02-14T07:57:04.025Z,-2.00
2019-02-14T07:59:52.079Z,-1.90
2019-02-14T08:02:39.666Z,-1.70
2019-02-14T08:05:27.832Z,-1.50
2019-02-14T08:08:15.848Z,-1.30
2019-02-14T08:11:03.965Z,-1.10
2019-02-14T08:13:52.555Z,-1.00
2019-02-14T08:16:40.500Z,-0.80
2019-02-14T08:19:28.591Z,-0.70
2019-02-14T08:22:16.923Z,-0.60
2019-02-14T08:25:05.434Z,-0.40
2019-02-14T08:27:53.655Z,-0.30
2019-02-14T08:30:41.581Z,-0.20
2019-02-14T08:33:29.451Z,-0.10
2019-02-14T08:36:17.596Z,0.00
2019-02-14T08:39:06.441Z,0.00
2019-02-14T08:41:55.407Z,0.20
2019-02-14T08:44:43.232Z,0.30
2019-02-14T08:47:31.364Z,0.50
2019-02-14T08:50:19.598Z,0.70
2019-02-14T08:53:07.924Z,1.00
2019-02-14T08:55:55.504Z,1.20
2019-02-14T08:58:43.592Z,1.40
2019-02-14T09:01:31.081Z,1.50
2019-02-14T09:04:19.085Z,1.70
2019-02-14T09:07:06.860Z,1.70
2019-02-14T09:09:55.224Z,1.90
2019-02-14T09:12:42.749Z,2.00
2019-02-14T09:15:31.238Z,2.10
2019-02-14T09:18:19.120Z,2.30
2019-02-14T09:21:07.372Z,2.50
2019-02-14T09:23:56.299Z,2.70
2019-02-14T09:26:44.395Z,2.90
2019-02-14T09:29:32.403Z,3.10
2019-02-14T09:32:23.754Z,3.20
2019-02-14T09:35:11.642Z,3.40
2019-02-14T09:38:03.404Z,3.50
2019-02-14T09:40:49.005Z,3.60
2019-02-14T09:43:37.049Z,3.60
2019-02-14T09:46:24.698Z,3.80
2019-02-14T09:49:12.273Z,4.00
2019-02-14T09:52:00.434Z,4.20
2019-02-14T09:54:48.685Z,4.30
2019-02-14T09:57:36.621Z,4.50
2019-02-14T10:00:24.947Z,4.70
2019-02-14T10:03:12.820Z,4.80
2019-02-14T10:06:00.867Z,4.90
2019-02-14T10:08:48.730Z,5.00
2019-02-14T10:11:36.957Z,5.00
2019-02-14T10:14:25.139Z,5.00
2019-02-14T10:17:21.866Z,5.00
2019-02-14T10:20:03.142Z,5.10
2019-02-14T10:22:51.250Z,5.30
2019-02-14T10:25:39.222Z,5.40
2019-02-14T10:28:27.387Z,5.50
2019-02-14T10:31:15.303Z,5.60
2019-02-14T10:34:03.282Z,5.60
2019-02-14T10:36:51.296Z,5.50
2019-02-14T10:39:39.103Z,5.50
2019-02-14T10:42:26.856Z,5.50
2019-02-14T10:45:16.016Z,5.50
2019-02-14T10:48:03.724Z,5.50
2019-02-14T10:50:51.570Z,5.60
2019-02-14T10:53:39.746Z,5.60
2019-02-14T10:56:28.090Z,5.70
2019-02-14T10:59:16.501Z,5.70
2019-02-14T11:02:05.367Z,5.80
2019-02-14T11:04:53.204Z,5.80
2019-02-14T11:07:40.628Z,5.90
2019-02-14T11:10:28.105Z,6.00
2019-02-14T11:13:16.293Z,6.10
2019-02-14T11:16:05.536Z,6.20
2019-02-14T11:18:53.437Z,6.10
2019-02-14T11:21:41.148Z,6.20
2019-02-14T11:24:28.956Z,6.10
2019-02-14T11:27:16.909Z,6.20
2019-02-14T11:30:05.313Z,6.40
2019-02-14T11:32:52.659Z,6.50
2019-02-14T11:35:40.515Z,6.50
2019-02-14T11:38:28.548Z,6.50
2019-02-14T11:41:16.187Z,6.60
2019-02-14T11:44:04.309Z,6.70
2019-02-14T11:46:52.028Z,6.80
2019-02-14T11:49:40.416Z,7.00
2019-02-14T11:52:28.586Z,7.00
2019-02-14T11:55:17.131Z,7.00
2019-02-14T11:58:04.945Z,7.00
2019-02-14T12:00:53.230Z,7.20
2019-02-14T12:03:41.452Z,7.20
2019-02-14T12:06:29.258Z,7.30
2019-02-14T12:09:17.326Z,7.50
2019-02-14T12:12:05.449Z,7.60
2019-02-14T12:14:53.586Z,7.70
2019-02-14T12:17:41.534Z,7.80
2019-02-14T12:20:29.459Z,7.90
2019-02-14T12:23:17.569Z,7.90
2019-02-14T12:26:05.858Z,8.00
2019-02-14T12:28:53.645Z,8.20
2019-02-14T12:31:41.431Z,8.40
2019-02-14T12:34:29.688Z,8.60
2019-02-14T12:37:17.924Z,8.70
2019-02-14T12:40:06.890Z,8.80
2019-02-14T12:42:54.543Z,8.90
2019-02-14T12:45:42.163Z,9.00
2019-02-14T12:48:30.497Z,9.20
2019-02-14T12:51:18.147Z,9.40
2019-02-14T12:54:05.896Z,9.60
2019-02-14T12:56:53.504Z,9.70
2019-02-14T12:59:41.709Z,9.80
2019-02-14T13:02:29.780Z,9.80
2019-02-14T13:05:17.935Z,9.80
2019-02-14T13:08:05.769Z,9.80
2019-02-14T13:10:53.726Z,9.80
2019-02-14T13:13:41.565Z,9.80
2019-02-14T13:16:28.914Z,9.90
2019-02-14T13:19:16.396Z,10.00
2019-02-14T13:22:04.327Z,10.20
2019-02-14T13:24:52.408Z,10.20
2019-02-14T13:27:39.946Z,10.30
2019-02-14T13:30:27.862Z,10.30
2019-02-14T13:33:15.818Z,10.40
2019-02-14T13:36:03.666Z,10.50
2019-02-14T13:38:51.535Z,10.50
2019-02-14T13:41:39.593Z,10.40
2019-02-14T13:44:27.459Z,10.30
2019-02-14T13:47:15.538Z,10.10
2019-02-14T13:50:03.624Z,10.00
2019-02-14T13:52:51.350Z,9.90
2019-02-14T13:55:39.276Z,9.90
2019-02-14T13:58:27.477Z,9.90
2019-02-14T14:01:15.221Z,9.90
2019-02-14T14:04:03.262Z,10.00
2019-02-14T14:06:51.501Z,10.10
2019-02-14T14:09:39.700Z,10.10
2019-02-14T14:12:27.106Z,10.10
2019-02-14T14:15:15.059Z,10.10
2019-02-14T14:18:03.188Z,10.00
2019-02-14T14:20:51.099Z,9.90
2019-02-14T14:23:38.872Z,9.90
2019-02-14T14:26:27.231Z,9.90
2019-02-14T14:29:15.318Z,10.00
2019-02-14T14:32:03.292Z,9.90
2019-02-14T14:34:51.331Z,9.80
2019-02-14T14:37:38.878Z,9.70
2019-02-14T14:40:26.744Z,9.70
2019-02-14T14:43:33.329Z,9.80
2019-02-14T14:46:34.272Z,9.90
2019-02-14T14:49:22.630Z,9.90
2019-02-14T14:52:10.929Z,10.00
2019-02-14T14:54:58.658Z,10.10
2019-02-14T14:57:46.724Z,10.20
2019-02-14T15:00:34.689Z,10.20
2019-02-14T15:03:24.300Z,10.10
2019-02-14T15:06:12.360Z,10.20
2019-02-14T15:09:00.692Z,10.30
2019-02-14T15:11:48.759Z,10.30
2019-02-14T15:14:36.855Z,10.30
2019-02-14T15:17:24.915Z,10.30
2019-02-14T15:20:12.746Z,10.30
2019-02-14T15:23:00.534Z,10.00
2019-02-14T15:25:48.314Z,9.70
2019-02-14T15:28:37.530Z,9.50
2019-02-14T15:31:25.858Z,9.30
2019-02-14T15:34:13.936Z,9.10
2019-02-14T15:37:02.218Z,9.00
2019-02-14T15:39:50.182Z,9.00
2019-02-14T15:42:37.917Z,9.00
2019-02-14T15:45:25.848Z,8.90
2019-02-14T15:48:14.074Z,8.80
2019-02-14T15:51:02.052Z,8.80
2019-02-14T15:53:50.150Z,8.60
2019-02-14T15:56:38.443Z,8.60
2019-02-14T15:59:28.665Z,8.60
2019-02-14T16:02:16.042Z,8.60
2019-02-14T16:05:03.629Z,8.50
2019-02-14T16:07:51.364Z,8.30
2019-02-14T16:10:39.129Z,8.20
2019-02-14T16:13:29.128Z,8.10
2019-02-14T16:16:17.233Z,8.00
2019-02-14T16:19:04.863Z,7.90
2019-02-14T16:21:54.300Z,7.90
2019-02-14T16:24:43.040Z,7.90
2019-02-14T16:27:31.347Z,8.00
2019-02-14T16:30:18.943Z,7.90
2019-02-14T16:33:06.920Z,7.90
2019-02-14T16:35:54.802Z,7.80
2019-02-14T16:38:43.185Z,7.80
2019-02-14T16:41:31.161Z,7.40
2019-02-14T16:44:18.801Z,7.20
2019-02-14T16:47:06.788Z,7.10
2019-02-14T16:49:54.756Z,7.00
2019-02-14T16:52:42.842Z,6.80
2019-02-14T16:55:30.749Z,6.50
2019-02-14T16:58:18.617Z,6.40
2019-02-14T17:01:06.925Z,6.30
2019-02-14T17:03:54.866Z,6.20
2019-02-14T17:06:42.692Z,6.00
2019-02-14T17:09:30.452Z,5.90
2019-02-14T17:12:18.799Z,5.80
2019-02-14T17:15:07.540Z,5.40
2019-02-14T17:17:55.202Z,5.10
2019-02-14T17:20:42.975Z,4.80
2019-02-14T17:23:31.095Z,4.60
2019-02-14T17:26:19.154Z,4.50
2019-02-14T17:29:07.676Z,4.40
2019-02-14T17:31:55.275Z,4.20
2019-02-14T17:34:43.404Z,4.10
2019-02-14T17:37:31.297Z,4.00
2019-02-14T17:40:19.329Z,3.90
2019-02-14T17:43:07.276Z,3.90
2019-02-14T17:45:55.244Z,3.80
2019-02-14T17:48:43.692Z,3.70
2019-02-14T17:51:31.548Z,3.70
2019-02-14T17:54:19.457Z,3.60
2019-02-14T17:57:07.012Z,3.50
2019-02-14T17:59:55.300Z,3.40
2019-02-14T18:02:42.983Z,3.30
2019-02-14T18:05:31.046Z,3.30
2019-02-14T18:08:18.703Z,3.20
2019-02-14T18:11:06.728Z,3.10
2019-02-14T18:13:54.457Z,3.00
2019-02-14T18:16:42.250Z,2.90
2019-02-14T18:19:30.493Z,2.90
2019-02-14T18:22:18.772Z,2.80
2019-02-14T18:25:07.385Z,2.70
2019-02-14T18:27:55.019Z,2.70
2019-02-14T18:30:42.781Z,2.60
2019-02-14T18:33:30.506Z,2.60
2019-02-14T18:36:18.679Z,2.50
2019-02-14T18:39:07.667Z,2.30
2019-02-14T18:41:55.292Z,2.20
2019-02-14T18:44:43.130Z,2.20
2019-02-14T18:47:39.296Z,2.10
2019-02-14T18:50:20.591Z,2.10
2019-02-14T18:53:08.565Z,2.00
2019-02-14T18:55:56.529Z,1.90
2019-02-14T18:58:44.793Z,1.90
2019-02-14T19:01:32.562Z,1.80
2019-02-14T19:04:20.590Z,1.80
2019-02-14T19:07:08.982Z,1.70
2019-02-14T19:09:57.028Z,1.70
2019-02-14T19:12:45.141Z,1.60
2019-02-14T19:15:33.082Z,1.60
2019-02-14T19:18:22.309Z,1.50
2019-02-14T19:21:10.359Z,1.40
2019-02-14T19:23:58.671Z,1.40
2019-02-14T19:26:46.846Z,1.40
2019-02-14T19:29:36.391Z,1.40
2019-02-14T19:32:25.083Z,1.40
2019-02-14T19:35:13.225Z,1.40
2019-02-14T19:38:01.082Z,1.40
2019-02-14T19:40:49.272Z,1.40
2019-02-14T19:43:37.294Z,1.50
2019-02-14T19:46:25.409Z,1.50
2019-02-14T19:49:13.164Z,1.50
2019-02-14T19:52:01.739Z,1.40
2019-02-14T19:54:49.799Z,1.40
2019-02-14T19:57:38.122Z,1.30
2019-02-14T20:00:26.273Z,1.20
2019-02-14T20:03:14.337Z,1.10
2019-02-14T20:06:04.015Z,1.00
2019-02-14T20:08:52.129Z,0.90
2019-02-14T20:11:40.128Z,0.90
2019-02-14T20:14:28.041Z,0.80
2019-02-14T20:17:16.928Z,0.80
2019-02-14T20:20:05.279Z,0.70
2019-02-14T20:22:53.144Z,0.70
2019-02-14T20:25:43.017Z,0.70
2019-02-14T20:28:31.222Z,0.70
2019-02-14T20:31:20.080Z,0.70
2019-02-14T20:34:07.707Z,0.80
2019-02-14T20:36:55.741Z,0.70
2019-02-14T20:39:43.580Z,0.70
2019-02-14T20:42:31.709Z,0.70
2019-02-14T20:45:20.187Z,0.70
2019-02-14T20:48:08.719Z,0.60
2019-02-14T20:50:56.973Z,0.50
2019-02-14T20:53:44.749Z,0.30
2019-02-14T20:56:32.595Z,0.30
2019-02-14T20:59:20.875Z,0.20
2019-02-14T21:02:08.680Z,0.10
2019-02-14T21:04:56.595Z,0.10
2019-02-14T21:07:45.069Z,0.00
2019-02-14T21:10:32.985Z,0.00
2019-02-14T21:13:22.942Z,0.00
2019-02-14T21:16:11.579Z,0.00
2019-02-14T21:18:59.859Z,0.00
2019-02-14T21:21:51.201Z,0.10
2019-02-14T21:24:39.067Z,0.00
2019-02-14T21:27:27.073Z,0.00
2019-02-14T21:30:15.290Z,-0.10
2019-02-14T21:33:03.446Z,-0.10
2019-02-14T21:35:51.336Z,-0.10
2019-02-14T21:38:39.119Z,-0.10
2019-02-14T21:41:27.233Z,-0.20
2019-02-14T21:44:15.109Z,-0.20
2019-02-14T21:47:03.611Z,-0.30
2019-02-14T21:49:51.903Z,-0.40
2019-02-14T21:52:40.215Z,-0.50
2019-02-14T21:55:28.495Z,-0.60
2019-02-14T21:58:16.212Z,-0.60
2019-02-14T22:01:04.616Z,-0.60
2019-02-14T22:03:53.523Z,-0.50
2019-02-14T22:06:41.747Z,-0.50
2019-02-14T22:09:29.911Z,-0.50
2019-02-14T22:12:37.114Z,-0.60
2019-02-14T22:15:10.639Z,-0.70
2019-02-14T22:17:58.812Z,-0.70
2019-02-14T22:20:47.137Z,-0.70
2019-02-14T22:23:35.306Z,-0.70
2019-02-14T22:26:23.463Z,-0.70
2019-02-14T22:29:11.574Z,-0.70
2019-02-14T22:31:59.535Z,-0.80
2019-02-14T22:34:48.264Z,-0.70
2019-02-14T22:37:36.002Z,-0.70
2019-02-14T22:40:24.141Z,-0.70
2019-02-14T22:43:12.285Z,-0.60
2019-02-14T22:46:00.231Z,-0.60
2019-02-14T22:48:49.529Z,-0.60
2019-02-14T22:51:37.902Z,-0.60
2019-02-14T22:54:25.958Z,-0.60
2019-02-14T22:57:13.953Z,-0.60
2019-02-14T23:00:01.801Z,-0.60
2019-02-14T23:02:49.850Z,-0.60
2019-02-14T23:05:38.145Z,-0.60
2019-02-14T23:08:26.237Z,-0.60
2019-02-14T23:11:14.163Z,-0.60
2019-02-14T23:14:02.935Z,-0.70
2019-02-14T23:16:51.149Z,-0.70
2019-02-14T23:19:39.159Z,-0.80
2019-02-14T23:22:27.409Z,-0.80
2019-02-14T23:25:16.553Z,-0.90
2019-02-14T23:28:04.982Z,-1.10
2019-02-14T23:30:52.927Z,-1.30
2019-02-14T23:33:40.836Z,-1.40
2019-02-14T23:36:28.898Z,-1.30
2019-02-14T23:39:17.002Z,-1.40
2019-02-14T23:42:05.115Z,-1.40
2019-02-14T23:44:53.021Z,-1.40
2019-02-14T23:47:40.964Z,-1.30
2019-02-14T23:50:29.773Z,-1.40
2019-02-14T23:53:17.790Z,-1.30
2019-02-14T23:56:05.452Z,-1.40
2019-02-14T23:58:53.607Z,-1.40
